ERB weather

Ernabella Airport
South Australia, Australia

Public forecast

Using degrees Celsius for public forecast. Weather courtesy of forecast.io.

Closest aviation weather report (METAR) to Ernabella Airport

Closest report is Ayers Rock Connellan Airport, 91.9 nm (170.1 km) NW. Retrieved 2020/02/23 10:00 UTC (1 hour ago):

YAYE 231000Z AUTO 11007KT 9999 // NCD 35/M08 Q1011

Closest aviation forecast (TAF) to Ernabella Airport

Closest forecast is Alice Springs Airport, 174.7 nm (323.5 km) NNE. Retrieved 2020/02/23 06:00 UTC (5 hours ago):

TAF YBAS 230500Z 2306/2406 12014KT CAVOK FM231000 12007KT CAVOK FM240100 13014KT CAVOK